createdAt,value
2023-02-04T00:00:56.620Z,5.05
2023-02-04T00:05:58.473Z,4.03
2023-02-04T00:11:00.182Z,4.60
2023-02-04T00:16:01.946Z,4.07
2023-02-04T00:21:03.753Z,3.58
2023-02-04T00:26:05.646Z,2.83
2023-02-04T00:31:07.436Z,3.95
2023-02-04T00:36:09.437Z,3.83
2023-02-04T00:41:11.830Z,3.30
2023-02-04T00:46:13.624Z,2.88
2023-02-04T00:51:15.335Z,2.17
2023-02-04T00:56:17.019Z,2.63
2023-02-04T01:01:18.753Z,2.25
2023-02-04T01:06:20.631Z,1.98
2023-02-04T01:11:22.456Z,2.13
2023-02-04T01:16:24.349Z,2.00
2023-02-04T01:21:26.534Z,2.22
2023-02-04T01:26:28.311Z,1.83
2023-02-04T01:31:31.476Z,2.25
2023-02-04T01:36:33.284Z,2.33
2023-02-04T01:41:34.995Z,2.38
2023-02-04T01:46:37.571Z,2.95
2023-02-04T01:51:39.874Z,2.67
2023-02-04T01:56:45.955Z,2.90
2023-02-04T02:01:52.547Z,2.97
2023-02-04T02:06:58.582Z,3.08
2023-02-04T02:12:02.713Z,3.35
2023-02-04T02:17:04.455Z,3.50
2023-02-04T02:22:16.729Z,2.85
2023-02-04T02:27:18.600Z,4.22
2023-02-04T02:32:20.976Z,3.33
2023-02-04T02:37:22.754Z,3.45
2023-02-04T02:42:24.733Z,4.07
2023-02-04T02:47:28.272Z,3.00
2023-02-04T02:52:30.067Z,3.20
2023-02-04T02:57:31.759Z,4.30
2023-02-04T03:02:33.495Z,2.65
2023-02-04T03:07:35.312Z,2.78
2023-02-04T03:12:37.281Z,3.42
2023-02-04T03:17:39.692Z,3.05
2023-02-04T03:22:41.832Z,3.67
2023-02-04T03:27:43.984Z,2.75
2023-02-04T03:32:45.674Z,3.60
2023-02-04T03:37:47.512Z,3.58
2023-02-04T03:42:49.197Z,3.42
2023-02-04T03:47:51.029Z,3.58
2023-02-04T03:52:53.909Z,4.03
2023-02-04T03:57:55.559Z,2.88
2023-02-04T04:02:57.523Z,3.03
2023-02-04T04:07:59.370Z,2.85
2023-02-04T04:13:01.095Z,2.85
2023-02-04T04:18:04.496Z,3.60
2023-02-04T04:23:06.218Z,3.20
2023-02-04T04:28:08.065Z,3.00
2023-02-04T04:33:09.861Z,2.67
2023-02-04T04:38:11.628Z,3.33
2023-02-04T04:43:13.282Z,3.83
2023-02-04T04:48:15.075Z,2.65
2023-02-04T04:53:16.796Z,3.08
2023-02-04T04:58:18.450Z,2.75
2023-02-04T05:03:20.142Z,2.67
2023-02-04T05:08:21.862Z,3.72
2023-02-04T05:13:25.295Z,3.35
2023-02-04T05:18:26.944Z,3.10
2023-02-04T05:23:28.651Z,2.58
2023-02-04T05:28:30.301Z,7.75
2023-02-04T05:33:31.993Z,2.95
2023-02-04T05:38:33.655Z,4.22
2023-02-04T05:43:35.377Z,4.82
2023-02-04T05:48:37.106Z,3.47
2023-02-04T05:53:38.781Z,2.10
2023-02-04T05:58:40.484Z,2.70
2023-02-04T06:03:42.170Z,2.85
2023-02-04T06:08:43.937Z,2.30
2023-02-04T06:13:45.624Z,2.55
2023-02-04T06:18:47.317Z,2.88
2023-02-04T06:23:49.539Z,5.47
2023-02-04T06:28:51.385Z,4.63
2023-02-04T06:33:53.184Z,4.40
2023-02-04T06:38:55.034Z,2.60
2023-02-04T06:43:56.801Z,4.82
2023-02-04T06:48:58.546Z,3.17
2023-02-04T06:54:00.308Z,3.45
2023-02-04T06:59:03.370Z,3.70
2023-02-04T07:04:05.317Z,3.17
2023-02-04T07:09:06.959Z,10.27
2023-02-04T07:14:10.340Z,12.05
2023-02-04T07:19:12.536Z,5.85
2023-02-04T07:24:14.360Z,5.82
2023-02-04T07:29:24.161Z,7.25
2023-02-04T07:34:27.100Z,14.27
2023-02-04T07:39:28.812Z,24.70
2023-02-04T07:44:30.570Z,16.45
2023-02-04T07:49:32.349Z,7.72
2023-02-04T07:54:34.039Z,7.45
2023-02-04T07:59:35.738Z,10.68
2023-02-04T08:04:40.570Z,8.40
2023-02-04T08:09:42.528Z,5.13
2023-02-04T08:14:44.234Z,4.88
2023-02-04T08:19:45.860Z,5.57
2023-02-04T08:24:47.542Z,6.10
2023-02-04T08:29:49.300Z,5.43
2023-02-04T08:34:51.007Z,5.78
2023-02-04T08:39:53.263Z,6.30
2023-02-04T08:44:55.021Z,7.72
2023-02-04T08:49:56.743Z,11.65
2023-02-04T08:54:58.484Z,5.55
2023-02-04T09:00:00.315Z,6.00
2023-02-04T09:05:01.995Z,5.85
2023-02-04T09:10:03.986Z,6.05
2023-02-04T09:15:05.931Z,6.30
2023-02-04T09:20:07.915Z,8.93
2023-02-04T09:25:09.682Z,9.80
2023-02-04T09:30:12.017Z,12.35
2023-02-04T09:35:13.682Z,11.27
2023-02-04T09:40:17.525Z,10.80
2023-02-04T09:45:26.871Z,14.43
2023-02-04T09:50:32.138Z,11.60
2023-02-04T09:55:39.198Z,10.30
2023-02-04T10:00:40.908Z,10.27
2023-02-04T10:05:43.755Z,12.07
2023-02-04T10:10:48.124Z,13.48
2023-02-04T10:15:51.049Z,14.75
2023-02-04T10:21:14.026Z,11.98
2023-02-04T10:26:17.240Z,12.93
2023-02-04T10:31:30.798Z,10.25
2023-02-04T10:36:32.989Z,6.88
2023-02-04T10:41:38.756Z,7.88
2023-02-04T10:46:40.704Z,7.40
2023-02-04T10:51:42.446Z,7.20
2023-02-04T10:56:44.307Z,4.97
2023-02-04T11:01:46.036Z,3.63
2023-02-04T11:06:48.863Z,3.53
2023-02-04T11:11:51.830Z,2.95
2023-02-04T11:16:54.785Z,3.20
2023-02-04T11:22:07.004Z,2.63
2023-02-04T11:27:22.196Z,3.00
2023-02-04T11:32:37.587Z,2.85
2023-02-04T11:37:42.254Z,2.67
2023-02-04T11:42:44.204Z,3.40
2023-02-04T11:47:47.115Z,2.78
2023-02-04T11:52:49.002Z,4.13
2023-02-04T11:57:55.640Z,4.82
2023-02-04T12:03:06.177Z,4.63
2023-02-04T12:08:33.111Z,3.07
2023-02-04T12:13:45.346Z,3.75
2023-02-04T12:18:47.083Z,3.08
2023-02-04T12:23:48.739Z,4.18
2023-02-04T12:28:50.383Z,2.92
2023-02-04T12:33:54.202Z,2.85
2023-02-04T12:38:58.778Z,2.72
2023-02-04T12:44:01.328Z,2.67
2023-02-04T12:49:03.152Z,6.32
2023-02-04T12:54:04.914Z,3.05
2023-02-04T12:59:06.614Z,3.53
2023-02-04T13:04:08.403Z,3.58
2023-02-04T13:09:10.188Z,3.75
2023-02-04T13:14:11.943Z,3.67
2023-02-04T13:19:13.623Z,2.45
2023-02-04T13:24:15.305Z,4.03
2023-02-04T13:29:17.569Z,2.60
2023-02-04T13:34:19.603Z,3.33
2023-02-04T13:39:21.444Z,4.30
2023-02-04T13:44:23.108Z,3.25
2023-02-04T13:49:24.852Z,3.00
2023-02-04T13:54:26.565Z,2.50
2023-02-04T13:59:28.424Z,4.25
2023-02-04T14:04:30.118Z,7.60
2023-02-04T14:09:31.782Z,2.25
2023-02-04T14:14:33.640Z,2.67
2023-02-04T14:19:35.426Z,3.38
2023-02-04T14:24:38.853Z,2.25
2023-02-04T14:29:40.570Z,2.42
2023-02-04T14:34:42.713Z,2.45
2023-02-04T14:39:44.410Z,2.40
2023-02-04T14:44:46.166Z,2.33
2023-02-04T14:49:47.928Z,2.38
2023-02-04T14:54:49.656Z,3.10
2023-02-04T14:59:51.506Z,2.28
2023-02-04T15:04:53.251Z,2.00
2023-02-04T15:09:55.116Z,2.38
2023-02-04T15:14:56.759Z,1.30
2023-02-04T15:19:58.621Z,2.03
2023-02-04T15:25:00.462Z,1.80
2023-02-04T15:30:02.239Z,2.47
2023-02-04T15:35:04.298Z,2.20
2023-02-04T15:40:06.609Z,1.05
2023-02-04T15:45:08.540Z,1.15
2023-02-04T15:50:11.068Z,3.70
2023-02-04T15:55:15.487Z,1.98
2023-02-04T16:00:17.371Z,1.77
2023-02-04T16:05:19.061Z,1.83
2023-02-04T16:10:20.810Z,2.58
2023-02-04T16:15:22.749Z,0.98
2023-02-04T16:20:24.458Z,1.80
2023-02-04T16:25:26.599Z,1.48
2023-02-04T16:30:28.436Z,1.38
2023-02-04T16:35:30.593Z,1.20
2023-02-04T16:40:32.742Z,1.35
2023-02-04T16:45:34.915Z,2.95
2023-02-04T16:50:36.871Z,3.45
2023-02-04T16:55:39.760Z,2.30
2023-02-04T17:00:49.923Z,2.45
2023-02-04T17:05:51.872Z,2.95
2023-02-04T17:11:20.365Z,3.40
2023-02-04T17:16:44.235Z,5.57
2023-02-04T17:22:00.669Z,7.32
2023-02-04T17:27:35.204Z,12.38
2023-02-04T17:32:47.048Z,24.75
2023-02-04T17:38:12.445Z,8.52
2023-02-04T17:43:38.213Z,7.25
2023-02-04T17:54:16.818Z,4.72
2023-02-04T17:59:21.876Z,8.10
2023-02-04T18:04:38.008Z,7.97
2023-02-04T18:09:58.040Z,6.15
2023-02-04T18:15:09.546Z,9.68
2023-02-04T18:25:37.350Z,9.77
2023-02-04T18:30:49.774Z,7.45
2023-02-04T18:36:16.523Z,3.33
2023-02-04T18:41:24.232Z,9.77
2023-02-04T18:46:33.746Z,7.55
2023-02-04T18:51:53.200Z,7.97
2023-02-04T18:57:10.575Z,3.20
2023-02-04T19:02:39.786Z,5.70
2023-02-04T19:07:42.358Z,5.68
2023-02-04T19:18:20.829Z,7.75
2023-02-04T19:23:28.691Z,6.75
2023-02-04T19:28:37.848Z,6.72
2023-02-04T19:33:42.737Z,5.78
2023-02-04T19:38:46.535Z,7.63
2023-02-04T19:43:48.808Z,8.05
2023-02-04T19:48:51.541Z,6.80
2023-02-04T19:53:59.150Z,6.80
2023-02-04T19:59:21.593Z,5.88
2023-02-04T20:04:23.719Z,6.70
2023-02-04T20:09:29.703Z,4.47
2023-02-04T20:14:51.111Z,6.28
2023-02-04T20:19:53.373Z,5.32
2023-02-04T20:24:58.911Z,5.47
2023-02-04T20:30:12.531Z,4.63
2023-02-04T20:35:14.743Z,5.07
2023-02-04T20:40:21.865Z,6.65
2023-02-04T20:45:41.598Z,11.68
2023-02-04T20:50:54.212Z,10.45
2023-02-04T20:56:04.120Z,8.55
2023-02-04T21:01:34.476Z,6.60
2023-02-04T21:06:37.173Z,10.10
2023-02-04T21:11:39.559Z,8.25
2023-02-04T21:16:41.767Z,8.57
2023-02-04T21:21:44.325Z,9.43
2023-02-04T21:26:46.842Z,13.40
2023-02-04T21:31:51.437Z,29.90
2023-02-04T21:36:56.228Z,14.88
2023-02-04T21:42:10.745Z,11.38
2023-02-04T21:47:13.917Z,14.52
2023-02-04T21:52:16.125Z,25.17
2023-02-04T21:57:19.312Z,26.55
2023-02-04T22:02:23.820Z,12.23
2023-02-04T22:07:26.512Z,9.70
2023-02-04T22:12:28.716Z,8.25
2023-02-04T22:17:31.073Z,5.75
2023-02-04T22:22:33.638Z,5.30
2023-02-04T22:27:36.108Z,5.35
2023-02-04T22:32:38.499Z,5.43
2023-02-04T22:37:42.392Z,6.97
2023-02-04T22:42:45.002Z,14.43
2023-02-04T22:47:47.352Z,13.45
2023-02-04T22:52:49.523Z,12.25
2023-02-04T22:57:51.672Z,11.32
2023-02-04T23:02:54.897Z,13.20
2023-02-04T23:07:57.181Z,10.63
2023-02-04T23:12:59.620Z,9.88
2023-02-04T23:18:01.794Z,11.32
2023-02-04T23:23:04.471Z,9.52
2023-02-04T23:28:07.072Z,9.00
2023-02-04T23:33:10.757Z,10.85
2023-02-04T23:38:13.149Z,12.43
2023-02-04T23:43:16.229Z,12.13
2023-02-04T23:48:18.468Z,11.88
2023-02-04T23:53:21.336Z,10.43
2023-02-04T23:58:23.480Z,12.50
